createdAt,value
2023-04-07T00:00:09.992Z,1.69
2023-04-07T00:02:37.706Z,1.69
2023-04-07T00:05:05.889Z,1.69
2023-04-07T00:07:39.464Z,1.67
2023-04-07T00:10:12.913Z,1.65
2023-04-07T00:12:42.180Z,1.66
2023-04-07T00:15:10.399Z,1.66
2023-04-07T00:17:38.132Z,1.65
2023-04-07T00:20:06.376Z,1.64
2023-04-07T00:22:34.154Z,1.63
2023-04-07T00:25:01.855Z,1.65
2023-04-07T00:27:29.587Z,1.65
2023-04-07T00:29:58.620Z,1.64
2023-04-07T00:32:26.643Z,1.62
2023-04-07T00:34:54.386Z,1.63
2023-04-07T00:37:21.997Z,1.63
2023-04-07T00:39:51.396Z,1.66
2023-04-07T00:42:19.229Z,1.65
2023-04-07T00:44:47.012Z,1.65
2023-04-07T00:47:16.574Z,1.68
2023-04-07T00:49:44.266Z,1.67
2023-04-07T00:52:12.487Z,1.68
2023-04-07T00:54:43.002Z,1.67
2023-04-07T00:57:11.034Z,1.66
2023-04-07T00:59:38.915Z,1.65
2023-04-07T01:02:11.914Z,1.65
2023-04-07T01:04:45.068Z,1.64
2023-04-07T01:07:16.110Z,1.65
2023-04-07T01:09:47.700Z,1.66
2023-04-07T01:12:19.415Z,1.66
2023-04-07T01:14:48.720Z,1.65
2023-04-07T01:17:17.291Z,1.66
2023-04-07T01:19:48.661Z,1.65
2023-04-07T01:22:17.387Z,1.61
2023-04-07T01:24:58.747Z,1.58
2023-04-07T01:27:33.264Z,1.57
2023-04-07T01:30:02.821Z,1.57
2023-04-07T01:32:31.362Z,1.54
2023-04-07T01:34:59.750Z,1.52
2023-04-07T01:37:28.466Z,1.50
2023-04-07T01:39:56.374Z,1.48
2023-04-07T01:42:24.252Z,1.49
2023-04-07T01:44:52.265Z,1.48
2023-04-07T01:47:21.677Z,1.46
2023-04-07T01:49:50.765Z,1.46
2023-04-07T01:52:18.532Z,1.47
2023-04-07T01:54:46.699Z,1.47
2023-04-07T01:57:14.376Z,1.48
2023-04-07T01:59:41.982Z,1.50
2023-04-07T02:02:09.777Z,1.51
2023-04-07T02:04:41.742Z,1.51
2023-04-07T02:07:10.669Z,1.47
2023-04-07T02:09:39.983Z,1.49
2023-04-07T02:12:09.289Z,1.48
2023-04-07T02:14:37.520Z,1.48
2023-04-07T02:17:05.941Z,1.47
2023-04-07T02:19:34.769Z,1.46
2023-04-07T02:22:04.265Z,1.46
2023-04-07T02:24:32.139Z,1.45
2023-04-07T02:27:01.730Z,1.46
2023-04-07T02:29:29.387Z,1.45
2023-04-07T02:31:57.285Z,1.46
2023-04-07T02:34:25.041Z,1.45
2023-04-07T02:36:52.771Z,1.46
2023-04-07T02:39:21.923Z,1.46
2023-04-07T02:41:49.686Z,1.50
2023-04-07T02:44:17.462Z,1.51
2023-04-07T02:46:45.146Z,1.49
2023-04-07T02:49:12.784Z,1.49
2023-04-07T02:51:40.428Z,1.49
2023-04-07T02:54:08.076Z,1.49
2023-04-07T02:56:37.386Z,1.48
2023-04-07T02:59:05.143Z,1.47
2023-04-07T03:01:34.940Z,1.48
2023-04-07T03:04:02.876Z,1.46
2023-04-07T03:06:31.589Z,1.47
2023-04-07T03:08:59.251Z,1.49
2023-04-07T03:11:27.270Z,1.47
2023-04-07T03:13:56.746Z,1.51
2023-04-07T03:16:24.484Z,1.49
2023-04-07T03:18:52.204Z,1.51
2023-04-07T03:21:19.904Z,1.52
2023-04-07T03:23:47.614Z,1.51
2023-04-07T03:26:16.594Z,1.52
2023-04-07T03:28:44.277Z,1.53
2023-04-07T03:31:13.279Z,1.53
2023-04-07T03:33:41.139Z,1.53
2023-04-07T03:36:09.393Z,1.53
2023-04-07T03:38:37.164Z,1.56
2023-04-07T03:41:04.861Z,1.52
2023-04-07T03:43:32.560Z,1.54
2023-04-07T03:46:00.318Z,1.56
2023-04-07T03:48:31.994Z,1.54
2023-04-07T03:50:59.677Z,1.56
2023-04-07T03:53:27.343Z,1.54
2023-04-07T03:55:55.448Z,1.57
2023-04-07T03:58:23.152Z,1.56
2023-04-07T04:00:50.819Z,1.54
2023-04-07T04:03:18.684Z,1.54
2023-04-07T04:05:47.824Z,1.54
2023-04-07T04:08:15.452Z,1.56
2023-04-07T04:10:43.144Z,1.57
2023-04-07T04:13:11.122Z,1.57
2023-04-07T04:15:38.839Z,1.58
2023-04-07T04:18:06.587Z,1.57
2023-04-07T04:20:34.268Z,1.55
2023-04-07T04:23:03.241Z,1.57
2023-04-07T04:25:31.058Z,1.58
2023-04-07T04:27:58.682Z,1.59
2023-04-07T04:30:26.324Z,1.59
2023-04-07T04:32:54.085Z,1.62
2023-04-07T04:35:21.961Z,1.58
2023-04-07T04:37:49.720Z,1.57
2023-04-07T04:40:18.971Z,1.57
2023-04-07T04:42:46.649Z,1.57
2023-04-07T04:45:14.301Z,1.58
2023-04-07T04:47:43.964Z,1.61
2023-04-07T04:50:11.917Z,1.63
2023-04-07T04:52:39.638Z,1.62
2023-04-07T04:55:07.923Z,1.66
2023-04-07T04:57:37.002Z,1.68
2023-04-07T05:00:05.344Z,1.67
2023-04-07T05:02:33.061Z,1.68
2023-04-07T05:05:00.890Z,1.71
2023-04-07T05:07:28.885Z,1.71
2023-04-07T05:09:56.661Z,1.72
2023-04-07T05:12:24.371Z,1.74
2023-04-07T05:14:53.396Z,1.74
2023-04-07T05:17:21.109Z,1.75
2023-04-07T05:19:48.801Z,1.72
2023-04-07T05:22:16.554Z,1.76
2023-04-07T05:24:44.370Z,1.79
2023-04-07T05:27:12.085Z,1.75
2023-04-07T05:29:39.699Z,1.80
2023-04-07T05:32:08.887Z,1.80
2023-04-07T05:34:36.746Z,1.83
2023-04-07T05:37:04.487Z,1.81
2023-04-07T05:39:32.159Z,1.85
2023-04-07T05:41:59.830Z,1.86
2023-04-07T05:44:27.576Z,1.90
2023-04-07T05:46:55.353Z,1.90
2023-04-07T05:49:24.411Z,1.91
2023-04-07T05:51:52.174Z,1.95
2023-04-07T05:54:22.248Z,1.92
2023-04-07T05:56:52.608Z,1.93
2023-04-07T05:59:20.556Z,1.98
2023-04-07T06:01:48.272Z,2.01
2023-04-07T06:04:16.031Z,2.06
2023-04-07T06:06:45.395Z,2.10
2023-04-07T06:09:13.005Z,2.12
2023-04-07T06:11:40.733Z,2.16
2023-04-07T06:14:08.452Z,2.14
2023-04-07T06:16:36.191Z,2.14
2023-04-07T06:19:04.076Z,2.20
2023-04-07T06:21:31.682Z,2.23
2023-04-07T06:24:00.764Z,2.29
2023-04-07T06:26:28.642Z,2.31
2023-04-07T06:28:56.604Z,2.33
2023-04-07T06:31:24.447Z,2.37
2023-04-07T06:33:52.430Z,2.37
2023-04-07T06:36:20.369Z,2.42
2023-04-07T06:38:48.280Z,2.42
2023-04-07T06:41:17.933Z,2.45
2023-04-07T06:43:45.981Z,2.46
2023-04-07T06:46:13.895Z,2.51
2023-04-07T06:48:41.610Z,2.47
2023-04-07T06:51:09.309Z,2.54
2023-04-07T06:53:36.925Z,2.56
2023-04-07T06:56:05.499Z,2.54
2023-04-07T06:58:34.988Z,2.60
2023-04-07T07:01:02.987Z,2.63
2023-04-07T07:03:33.426Z,2.62
2023-04-07T07:06:01.882Z,2.65
2023-04-07T07:08:30.818Z,2.64
2023-04-07T07:10:58.845Z,2.69
2023-04-07T07:13:27.311Z,2.71
2023-04-07T07:15:56.448Z,2.75
2023-04-07T07:18:24.510Z,2.74
2023-04-07T07:20:52.253Z,2.75
2023-04-07T07:23:20.037Z,2.78
2023-04-07T07:25:47.645Z,2.78
2023-04-07T07:28:15.519Z,2.78
2023-04-07T07:30:43.277Z,2.82
2023-04-07T07:33:12.357Z,2.84
2023-04-07T07:35:40.569Z,2.82
2023-04-07T07:38:08.520Z,2.85
2023-04-07T07:40:36.214Z,2.89
2023-04-07T07:43:03.807Z,2.93
2023-04-07T07:45:31.442Z,2.92
2023-04-07T07:47:59.197Z,2.95
2023-04-07T07:50:28.351Z,2.97
2023-04-07T07:52:56.072Z,3.02
2023-04-07T07:55:23.872Z,3.05
2023-04-07T07:57:51.540Z,3.09
2023-04-07T08:00:19.259Z,3.10
2023-04-07T08:02:47.088Z,3.12
2023-04-07T08:05:14.845Z,3.17
2023-04-07T08:07:46.950Z,3.22
2023-04-07T08:10:14.686Z,3.25
2023-04-07T08:12:42.454Z,3.25
2023-04-07T08:15:10.443Z,3.23
2023-04-07T08:17:38.150Z,3.25
2023-04-07T08:20:06.730Z,3.29
2023-04-07T08:22:34.401Z,3.31
2023-04-07T08:25:03.571Z,3.26
2023-04-07T08:27:31.213Z,3.31
2023-04-07T08:30:02.053Z,3.36
2023-04-07T08:32:35.486Z,3.36
2023-04-07T08:35:03.261Z,3.36
2023-04-07T08:37:31.458Z,3.37
2023-04-07T08:39:59.165Z,3.39
2023-04-07T08:42:29.746Z,3.43
2023-04-07T08:44:59.741Z,3.44
2023-04-07T08:47:29.414Z,3.46
2023-04-07T08:49:58.389Z,3.49
2023-04-07T08:52:29.564Z,3.48
2023-04-07T08:54:58.903Z,3.54
2023-04-07T08:57:30.035Z,3.54
2023-04-07T08:59:58.222Z,3.58
2023-04-07T09:02:26.061Z,3.57
2023-04-07T09:04:53.816Z,3.58
2023-04-07T09:07:21.431Z,3.58
2023-04-07T09:09:49.089Z,3.61
2023-04-07T09:12:16.812Z,3.61
2023-04-07T09:14:45.862Z,3.60
2023-04-07T09:17:13.468Z,3.56
2023-04-07T09:19:41.228Z,3.60
2023-04-07T09:22:12.486Z,3.64
2023-04-07T09:24:40.126Z,3.60
2023-04-07T09:27:13.451Z,3.66
2023-04-07T09:29:43.258Z,3.60
2023-04-07T09:32:13.609Z,3.63
2023-04-07T09:34:41.968Z,3.68
2023-04-07T09:37:10.811Z,3.70
2023-04-07T09:39:50.609Z,3.71
2023-04-07T09:42:20.573Z,3.73
2023-04-07T09:44:48.344Z,3.75
2023-04-07T09:47:17.979Z,3.76
2023-04-07T09:49:53.829Z,3.80
2023-04-07T09:52:24.106Z,3.79
2023-04-07T09:54:52.154Z,3.81
2023-04-07T09:57:20.173Z,3.88
2023-04-07T09:59:48.700Z,3.86
2023-04-07T10:02:18.141Z,3.86
2023-04-07T10:04:46.119Z,3.90
2023-04-07T10:07:14.046Z,3.94
2023-04-07T10:09:41.780Z,4.00
2023-04-07T10:12:09.536Z,4.05
2023-04-07T10:14:40.167Z,4.05
2023-04-07T10:17:08.816Z,4.07
2023-04-07T10:19:38.427Z,4.06
2023-04-07T10:22:07.533Z,4.08
2023-04-07T10:24:46.036Z,4.10
2023-04-07T10:27:15.767Z,4.13
2023-04-07T10:29:44.648Z,4.20
2023-04-07T10:32:12.501Z,4.23
2023-04-07T10:34:59.529Z,4.20
2023-04-07T10:37:28.760Z,4.24
2023-04-07T10:40:11.415Z,4.26
2023-04-07T10:42:48.790Z,4.30
2023-04-07T10:45:16.609Z,4.33
2023-04-07T10:48:02.182Z,4.33
2023-04-07T10:50:29.979Z,4.33
2023-04-07T10:53:08.530Z,4.39
2023-04-07T10:55:37.584Z,4.42
2023-04-07T10:58:18.339Z,4.45
2023-04-07T11:01:00.867Z,4.46
2023-04-07T11:03:29.697Z,4.50
2023-04-07T11:06:04.184Z,4.49
2023-04-07T11:08:36.552Z,4.49
2023-04-07T11:11:09.005Z,4.53
2023-04-07T11:13:41.744Z,4.56
2023-04-07T11:16:09.953Z,4.57
2023-04-07T11:18:37.916Z,4.62
2023-04-07T11:21:06.742Z,4.64
2023-04-07T11:23:41.039Z,4.65
2023-04-07T11:26:10.147Z,4.72
2023-04-07T11:28:46.132Z,4.74
2023-04-07T11:31:13.991Z,4.74
2023-04-07T11:33:42.092Z,4.77
2023-04-07T11:36:09.805Z,4.81
2023-04-07T11:38:38.148Z,4.80
2023-04-07T11:41:13.055Z,4.85
2023-04-07T11:43:42.697Z,4.85
2023-04-07T11:46:11.611Z,4.88
2023-04-07T11:48:40.697Z,4.88
2023-04-07T11:51:16.680Z,4.89
2023-04-07T11:53:44.376Z,4.92
2023-04-07T11:56:16.838Z,4.98
2023-04-07T11:58:48.231Z,5.01
2023-04-07T12:01:15.922Z,5.04
2023-04-07T12:03:57.302Z,5.05
2023-04-07T12:06:29.115Z,5.09
2023-04-07T12:08:56.872Z,5.14
2023-04-07T12:11:26.622Z,5.14
2023-04-07T12:13:54.373Z,5.17
2023-04-07T12:16:22.203Z,5.22
2023-04-07T12:18:51.545Z,5.24
2023-04-07T12:21:19.243Z,5.26
2023-04-07T12:23:47.562Z,5.29
2023-04-07T12:26:15.505Z,5.30
2023-04-07T12:28:45.318Z,5.27
2023-04-07T12:31:13.807Z,5.28
2023-04-07T12:33:43.321Z,5.30
2023-04-07T12:36:14.423Z,5.35
2023-04-07T12:38:42.453Z,5.38
2023-04-07T12:41:10.141Z,5.37
2023-04-07T12:43:37.925Z,5.43
2023-04-07T12:46:10.655Z,5.47
2023-04-07T12:48:46.759Z,5.48
2023-04-07T12:51:14.504Z,5.52
2023-04-07T12:53:42.174Z,5.53
2023-04-07T12:56:09.843Z,5.56
2023-04-07T12:58:37.542Z,5.59
2023-04-07T13:01:05.345Z,5.60
2023-04-07T13:03:34.615Z,5.62
2023-04-07T13:06:02.604Z,5.65
2023-04-07T13:08:30.293Z,5.66
2023-04-07T13:10:57.948Z,5.72
2023-04-07T13:13:25.877Z,5.75
2023-04-07T13:15:53.552Z,5.80
2023-04-07T13:18:21.853Z,5.79
2023-04-07T13:21:04.144Z,5.84
2023-04-07T13:23:43.119Z,5.90
2023-04-07T13:26:11.628Z,5.95
2023-04-07T13:28:39.867Z,5.96
2023-04-07T13:31:07.791Z,6.00
2023-04-07T13:33:37.500Z,6.03
2023-04-07T13:36:06.576Z,6.00
2023-04-07T13:38:34.315Z,6.02
2023-04-07T13:41:01.978Z,6.07
2023-04-07T13:43:29.646Z,6.09
2023-04-07T13:45:57.503Z,6.14
2023-04-07T13:48:25.241Z,6.17
2023-04-07T13:50:52.964Z,6.16
2023-04-07T13:53:22.055Z,6.17
2023-04-07T13:55:49.797Z,6.16
2023-04-07T13:58:17.463Z,6.13
2023-04-07T14:00:45.105Z,6.11
2023-04-07T14:03:13.040Z,6.06
2023-04-07T14:05:40.900Z,6.09
2023-04-07T14:08:08.558Z,6.07
2023-04-07T14:10:37.595Z,6.07
2023-04-07T14:13:05.260Z,6.07
2023-04-07T14:15:34.061Z,6.10
2023-04-07T14:18:01.910Z,6.15
2023-04-07T14:20:29.627Z,6.14
2023-04-07T14:22:57.273Z,6.16
2023-04-07T14:25:24.983Z,6.14
2023-04-07T14:27:54.052Z,6.11
2023-04-07T14:30:21.821Z,6.06
2023-04-07T14:32:49.532Z,6.04
2023-04-07T14:35:17.341Z,6.11
2023-04-07T14:37:45.072Z,6.11
2023-04-07T14:40:13.092Z,6.10
2023-04-07T14:42:41.620Z,6.10
2023-04-07T14:45:12.760Z,6.06
2023-04-07T14:47:40.433Z,6.05
2023-04-07T14:50:08.686Z,6.07
2023-04-07T14:52:36.333Z,6.04
2023-04-07T14:55:04.024Z,6.03
2023-04-07T14:57:32.094Z,6.00
2023-04-07T14:59:59.740Z,6.02
2023-04-07T15:02:29.623Z,6.02
2023-04-07T15:04:57.523Z,5.98
2023-04-07T15:07:25.405Z,5.95
2023-04-07T15:09:53.135Z,5.93
2023-04-07T15:12:20.773Z,5.88
2023-04-07T15:14:53.804Z,5.88
2023-04-07T15:17:27.522Z,5.87
2023-04-07T15:20:02.294Z,5.86
2023-04-07T15:22:30.661Z,5.81
2023-04-07T15:24:58.320Z,5.78
2023-04-07T15:27:25.993Z,5.74
2023-04-07T15:29:53.804Z,5.74
2023-04-07T15:32:21.596Z,5.68
2023-04-07T15:34:50.821Z,5.63
2023-04-07T15:37:19.978Z,5.64
2023-04-07T15:39:49.380Z,5.65
2023-04-07T15:42:17.113Z,5.62
2023-04-07T15:44:44.766Z,5.57
2023-04-07T15:47:12.461Z,5.52
2023-04-07T15:49:41.401Z,5.50
2023-04-07T15:52:09.421Z,5.48
2023-04-07T15:54:38.564Z,5.48
2023-04-07T15:57:06.271Z,5.46
2023-04-07T15:59:36.055Z,5.41
2023-04-07T16:02:04.053Z,5.37
2023-04-07T16:04:31.930Z,5.34
2023-04-07T16:06:59.583Z,5.35
2023-04-07T16:09:27.874Z,5.29
2023-04-07T16:11:56.850Z,5.26
2023-04-07T16:14:27.016Z,5.27
2023-04-07T16:16:58.674Z,5.26
2023-04-07T16:19:27.260Z,5.23
2023-04-07T16:21:55.253Z,5.22
2023-04-07T16:24:23.076Z,5.17
2023-04-07T16:26:52.440Z,5.13
2023-04-07T16:29:22.450Z,5.11
2023-04-07T16:31:51.050Z,5.09
2023-04-07T16:34:18.803Z,5.06
2023-04-07T16:36:47.522Z,5.04
2023-04-07T16:39:15.391Z,5.01
2023-04-07T16:41:43.137Z,4.98
2023-04-07T16:44:10.805Z,4.94
2023-04-07T16:46:39.850Z,4.88
2023-04-07T16:49:07.534Z,4.85
2023-04-07T16:51:35.294Z,4.83
2023-04-07T16:54:03.059Z,4.79
2023-04-07T16:56:30.734Z,4.76
2023-04-07T16:58:58.387Z,4.74
2023-04-07T17:01:29.162Z,4.71
2023-04-07T17:03:58.304Z,4.69
2023-04-07T17:06:25.999Z,4.67
2023-04-07T17:08:53.610Z,4.68
2023-04-07T17:11:21.389Z,4.68
2023-04-07T17:13:49.365Z,4.64
2023-04-07T17:16:17.341Z,4.60
2023-04-07T17:18:45.043Z,4.57
2023-04-07T17:21:15.478Z,4.52
2023-04-07T17:23:44.530Z,4.49
2023-04-07T17:26:12.420Z,4.49
2023-04-07T17:28:40.051Z,4.47
2023-04-07T17:31:07.863Z,4.43
2023-04-07T17:33:35.594Z,4.46
2023-04-07T17:36:03.917Z,4.49
2023-04-07T17:38:33.114Z,4.44
2023-04-07T17:41:01.878Z,4.43
2023-04-07T17:43:29.747Z,4.41
2023-04-07T17:45:57.737Z,4.39
2023-04-07T17:48:25.437Z,4.34
2023-04-07T17:50:53.057Z,4.33
2023-04-07T17:53:20.734Z,4.32
2023-04-07T17:55:50.118Z,4.34
2023-04-07T17:58:20.055Z,4.25
2023-04-07T18:00:47.981Z,4.18
2023-04-07T18:03:15.860Z,4.14
2023-04-07T18:05:44.867Z,4.08
2023-04-07T18:08:12.947Z,4.05
2023-04-07T18:10:40.834Z,4.02
2023-04-07T18:13:09.835Z,3.94
2023-04-07T18:15:37.557Z,3.92
2023-04-07T18:18:05.373Z,3.90
2023-04-07T18:20:33.716Z,3.87
2023-04-07T18:23:02.150Z,3.88
2023-04-07T18:25:29.828Z,3.92
2023-04-07T18:27:58.698Z,3.92
2023-04-07T18:30:27.822Z,3.90
2023-04-07T18:32:55.513Z,3.92
2023-04-07T18:35:23.196Z,3.91
2023-04-07T18:37:50.895Z,3.91
2023-04-07T18:40:18.702Z,3.86
2023-04-07T18:42:46.452Z,3.81
2023-04-07T18:45:14.152Z,3.79
2023-04-07T18:47:43.331Z,3.77
2023-04-07T18:50:11.502Z,3.73
2023-04-07T18:52:39.194Z,3.74
2023-04-07T18:55:07.825Z,3.70
2023-04-07T18:57:35.556Z,3.69
2023-04-07T19:00:03.218Z,3.65
2023-04-07T19:02:31.042Z,3.65
2023-04-07T19:05:00.186Z,3.69
2023-04-07T19:07:27.968Z,3.62
2023-04-07T19:09:55.592Z,3.60
2023-04-07T19:12:23.284Z,3.57
2023-04-07T19:14:51.053Z,3.52
2023-04-07T19:17:18.822Z,3.49
2023-04-07T19:19:46.681Z,3.46
2023-04-07T19:22:16.537Z,3.44
2023-04-07T19:24:44.217Z,3.40
2023-04-07T19:27:12.735Z,3.39
2023-04-07T19:29:40.424Z,3.39
2023-04-07T19:32:08.984Z,3.41
2023-04-07T19:34:36.755Z,3.39
2023-04-07T19:37:04.413Z,3.37
2023-04-07T19:39:34.687Z,3.36
2023-04-07T19:42:02.381Z,3.39
2023-04-07T19:44:30.050Z,3.42
2023-04-07T19:46:58.335Z,3.48
2023-04-07T19:49:26.035Z,3.49
2023-04-07T19:51:54.104Z,3.51
2023-04-07T19:54:22.301Z,3.51
2023-04-07T19:56:51.409Z,3.48
2023-04-07T19:59:19.182Z,3.41
2023-04-07T20:01:46.983Z,3.40
2023-04-07T20:04:14.724Z,3.39
2023-04-07T20:06:42.399Z,3.36
2023-04-07T20:09:10.580Z,3.32
2023-04-07T20:11:38.359Z,3.28
2023-04-07T20:14:07.370Z,3.27
2023-04-07T20:16:35.144Z,3.24
2023-04-07T20:19:04.153Z,3.24
2023-04-07T20:21:32.363Z,3.27
2023-04-07T20:24:00.034Z,3.28
2023-04-07T20:26:27.963Z,3.24
2023-04-07T20:28:55.752Z,3.25
2023-04-07T20:31:24.796Z,3.21
2023-04-07T20:33:52.476Z,3.19
2023-04-07T20:36:20.334Z,3.21
2023-04-07T20:38:48.535Z,3.23
2023-04-07T20:41:17.413Z,3.16
2023-04-07T20:43:45.203Z,3.18
2023-04-07T20:46:12.905Z,3.17
2023-04-07T20:48:42.035Z,3.15
2023-04-07T20:51:09.782Z,3.13
2023-04-07T20:53:37.488Z,3.10
2023-04-07T20:56:05.639Z,3.11
2023-04-07T20:58:33.328Z,3.08
2023-04-07T21:01:01.511Z,3.08
2023-04-07T21:03:31.041Z,3.07
2023-04-07T21:06:00.297Z,3.11
2023-04-07T21:08:28.056Z,3.13
2023-04-07T21:10:55.893Z,3.14
2023-04-07T21:13:25.943Z,3.11
2023-04-07T21:15:53.652Z,3.04
2023-04-07T21:18:21.416Z,3.04
2023-04-07T21:20:49.186Z,3.06
2023-04-07T21:23:18.217Z,3.11
2023-04-07T21:25:45.985Z,3.13
2023-04-07T21:28:13.597Z,3.16
2023-04-07T21:30:41.869Z,3.18
2023-04-07T21:33:09.853Z,3.15
2023-04-07T21:35:38.592Z,3.14
2023-04-07T21:38:06.280Z,3.09
2023-04-07T21:40:35.796Z,3.06
2023-04-07T21:43:03.535Z,3.05
2023-04-07T21:45:31.202Z,3.02
2023-04-07T21:47:58.852Z,3.03
2023-04-07T21:50:26.628Z,3.02
2023-04-07T21:52:54.471Z,3.02
2023-04-07T21:55:22.288Z,2.99
2023-04-07T21:57:51.594Z,2.92
2023-04-07T22:00:19.410Z,2.85
2023-04-07T22:02:47.238Z,2.84
2023-04-07T22:05:16.014Z,2.84
2023-04-07T22:07:45.539Z,2.86
2023-04-07T22:10:13.425Z,2.84
2023-04-07T22:12:41.357Z,2.81
2023-04-07T22:15:12.319Z,2.79
2023-04-07T22:17:41.357Z,2.76
2023-04-07T22:20:10.486Z,2.72
2023-04-07T22:22:38.338Z,2.69
2023-04-07T22:25:06.734Z,2.63
2023-04-07T22:27:35.358Z,2.59
2023-04-07T22:30:03.459Z,2.54
2023-04-07T22:32:32.594Z,2.49
2023-04-07T22:35:00.368Z,2.41
2023-04-07T22:37:28.309Z,2.35
2023-04-07T22:39:56.034Z,2.34
2023-04-07T22:42:23.761Z,2.30
2023-04-07T22:44:51.486Z,2.27
2023-04-07T22:47:19.198Z,2.22
2023-04-07T22:49:48.314Z,2.15
2023-04-07T22:52:16.036Z,2.13
2023-04-07T22:54:43.768Z,2.14
2023-04-07T22:57:11.518Z,2.12
2023-04-07T22:59:39.330Z,2.11
2023-04-07T23:02:07.260Z,2.09
2023-04-07T23:04:35.024Z,2.05
2023-04-07T23:07:04.171Z,1.98
2023-04-07T23:09:31.888Z,1.93
2023-04-07T23:11:59.570Z,1.84
2023-04-07T23:14:27.326Z,1.77
2023-04-07T23:16:56.246Z,1.67
2023-04-07T23:19:24.076Z,1.59
2023-04-07T23:21:52.333Z,1.56
2023-04-07T23:24:21.387Z,1.51
2023-04-07T23:26:49.064Z,1.47
2023-04-07T23:29:16.873Z,1.41
2023-04-07T23:31:44.571Z,1.38
2023-04-07T23:34:12.330Z,1.34
2023-04-07T23:36:40.332Z,1.29
2023-04-07T23:39:07.982Z,1.25
2023-04-07T23:41:37.093Z,1.23
2023-04-07T23:44:04.901Z,1.17
2023-04-07T23:46:32.644Z,1.13
2023-04-07T23:49:00.388Z,1.07
2023-04-07T23:51:28.219Z,1.03
2023-04-07T23:53:55.972Z,0.99
2023-04-07T23:56:23.770Z,0.95
2023-04-07T23:58:52.851Z,0.93
